Greenburgh, New York
Current Conditions -  °F | °C
As of 11:56 PM on Saturday 25 Oct 2014 (Local Time) from KHPN Reporting Station
Few Clouds Few Clouds  
Wind Chill: 60°   Ceiling: Unl
Heat Index: 60°   Visibility: 10mi
Dew Point: 43°   Wind: 6mph
Humidity: 53%   Direction: 260°W
Pressure: 29.54"   Gusts: NA
Location:  41.0404°N, 73.8014°W
Report Text: KHPN 260356Z 26005KT 10SM FEW100 16/06 A2954 RMK AO2 SLP003 T01560061
Loading
Personal Weather Stations






























Interactive Weather Map New forecast layout! Learn more

10-Day Weather Forecast

Advertisements
Track Severe Weather on mobile